sensor_id;sensor_type;location;lat;lon;timestamp;pressure;altitude;pressure_sealevel;temperature;humidity
54329;BME280;40710;51.120;13.136;2023-03-13T00:01:40;98652.09;;;9.99;65.56
54329;BME280;40710;51.120;13.136;2023-03-13T00:04:05;98645.88;;;10.56;64.43
54329;BME280;40710;51.120;13.136;2023-03-13T00:06:34;98658.31;;;10.67;63.67
54329;BME280;40710;51.120;13.136;2023-03-13T00:08:58;98650.69;;;9.79;66.87
54329;BME280;40710;51.120;13.136;2023-03-13T00:11:26;98639.47;;;10.33;65.32
54329;BME280;40710;51.120;13.136;2023-03-13T00:13:59;98646.47;;;9.91;65.84
54329;BME280;40710;51.120;13.136;2023-03-13T00:16:23;98626.16;;;11.04;63.06
54329;BME280;40710;51.120;13.136;2023-03-13T00:18:51;98632.47;;;10.61;63.82
54329;BME280;40710;51.120;13.136;2023-03-13T00:21:17;98646.34;;;10.07;65.64
54329;BME280;40710;51.120;13.136;2023-03-13T00:23:42;98631.44;;;10.22;65.08
54329;BME280;40710;51.120;13.136;2023-03-13T00:26:10;98655.81;;;10.10;65.49
54329;BME280;40710;51.120;13.136;2023-03-13T00:28:38;98630.16;;;10.69;63.53
54329;BME280;40710;51.120;13.136;2023-03-13T00:33:33;98660.97;;;10.11;65.11
54329;BME280;40710;51.120;13.136;2023-03-13T00:36:01;98625.75;;;10.70;63.91
54329;BME280;40710;51.120;13.136;2023-03-13T00:38:27;98616.88;;;10.58;63.16
54329;BME280;40710;51.120;13.136;2023-03-13T00:41:25;98626.22;;;10.76;63.67
54329;BME280;40710;51.120;13.136;2023-03-13T00:43:51;98628.19;;;10.46;64.07
54329;BME280;40710;51.120;13.136;2023-03-13T00:46:19;98615.66;;;11.29;61.69
54329;BME280;40710;51.120;13.136;2023-03-13T00:48:44;98628.28;;;10.44;63.59
54329;BME280;40710;51.120;13.136;2023-03-13T00:51:09;98647.19;;;9.93;64.97
54329;BME280;40710;51.120;13.136;2023-03-13T00:53:35;98616.69;;;11.27;62.12
54329;BME280;40710;51.120;13.136;2023-03-13T00:56:03;98625.19;;;10.37;64.07
54329;BME280;40710;51.120;13.136;2023-03-13T00:58:30;98628.22;;;10.58;61.83
54329;BME280;40710;51.120;13.136;2023-03-13T01:00:56;98630.53;;;10.90;61.91
54329;BME280;40710;51.120;13.136;2023-03-13T01:03:23;98619.22;;;10.35;62.53
54329;BME280;40710;51.120;13.136;2023-03-13T01:06:00;98612.56;;;10.57;62.46
54329;BME280;40710;51.120;13.136;2023-03-13T01:08:26;98621.13;;;10.19;63.20
54329;BME280;40710;51.120;13.136;2023-03-13T01:11:00;98602.47;;;10.51;62.75
54329;BME280;40710;51.120;13.136;2023-03-13T01:13:25;98596.94;;;11.21;60.98
54329;BME280;40710;51.120;13.136;2023-03-13T01:15:50;98600.13;;;10.86;62.26
54329;BME280;40710;51.120;13.136;2023-03-13T01:18:14;98614.09;;;10.05;63.70
54329;BME280;40710;51.120;13.136;2023-03-13T01:20:39;98594.44;;;10.79;62.72
54329;BME280;40710;51.120;13.136;2023-03-13T01:23:04;98593.22;;;11.11;60.83
54329;BME280;40710;51.120;13.136;2023-03-13T01:25:28;98591.03;;;11.05;61.19
54329;BME280;40710;51.120;13.136;2023-03-13T01:27:53;98591.13;;;10.50;62.38
54329;BME280;40710;51.120;13.136;2023-03-13T01:30:17;98610.69;;;10.17;63.35
54329;BME280;40710;51.120;13.136;2023-03-13T01:32:42;98604.06;;;9.97;64.14
54329;BME280;40710;51.120;13.136;2023-03-13T01:35:07;98594.13;;;10.44;63.19
54329;BME280;40710;51.120;13.136;2023-03-13T01:37:32;98593.78;;;9.80;64.10
54329;BME280;40710;51.120;13.136;2023-03-13T01:39:56;98594.66;;;10.76;62.62
54329;BME280;40710;51.120;13.136;2023-03-13T01:42:21;98591.59;;;10.43;63.21
54329;BME280;40710;51.120;13.136;2023-03-13T01:44:52;98576.03;;;10.79;62.16
54329;BME280;40710;51.120;13.136;2023-03-13T01:47:17;98588.78;;;10.73;61.85
54329;BME280;40710;51.120;13.136;2023-03-13T01:49:41;98583.16;;;11.18;61.52
54329;BME280;40710;51.120;13.136;2023-03-13T01:52:13;98577.34;;;10.47;62.50
54329;BME280;40710;51.120;13.136;2023-03-13T01:54:56;98571.94;;;10.75;62.64
54329;BME280;40710;51.120;13.136;2023-03-13T01:57:34;98571.88;;;10.50;63.32
54329;BME280;40710;51.120;13.136;2023-03-13T02:00:10;98561.59;;;10.47;63.42
54329;BME280;40710;51.120;13.136;2023-03-13T02:02:39;98551.25;;;10.84;62.21
54329;BME280;40710;51.120;13.136;2023-03-13T02:05:06;98543.50;;;10.42;63.02
54329;BME280;40710;51.120;13.136;2023-03-13T02:07:42;98544.84;;;10.75;62.15
54329;BME280;40710;51.120;13.136;2023-03-13T02:10:12;98549.50;;;11.23;60.97
54329;BME280;40710;51.120;13.136;2023-03-13T02:12:39;98553.88;;;10.84;61.86
54329;BME280;40710;51.120;13.136;2023-03-13T02:15:08;98551.84;;;10.62;62.70
54329;BME280;40710;51.120;13.136;2023-03-13T02:17:35;98555.78;;;10.27;63.52
54329;BME280;40710;51.120;13.136;2023-03-13T02:20:02;98546.84;;;10.97;61.88
54329;BME280;40710;51.120;13.136;2023-03-13T02:22:36;98534.84;;;10.93;61.46
54329;BME280;40710;51.120;13.136;2023-03-13T02:27:46;98544.50;;;10.67;62.07
54329;BME280;40710;51.120;13.136;2023-03-13T02:30:12;98539.38;;;10.91;62.38
54329;BME280;40710;51.120;13.136;2023-03-13T02:32:39;98544.19;;;10.71;61.78
54329;BME280;40710;51.120;13.136;2023-03-13T02:35:10;98538.31;;;10.93;61.47
54329;BME280;40710;51.120;13.136;2023-03-13T02:37:36;98526.22;;;11.16;60.33
54329;BME280;40710;51.120;13.136;2023-03-13T02:40:06;98537.19;;;10.45;62.70
54329;BME280;40710;51.120;13.136;2023-03-13T02:42:33;98539.38;;;11.04;62.04
54329;BME280;40710;51.120;13.136;2023-03-13T02:44:57;98542.84;;;10.38;62.69
54329;BME280;40710;51.120;13.136;2023-03-13T02:47:23;98543.59;;;10.40;62.69
54329;BME280;40710;51.120;13.136;2023-03-13T02:49:48;98539.91;;;11.22;60.81
54329;BME280;40710;51.120;13.136;2023-03-13T02:52:20;98532.66;;;11.38;60.56
54329;BME280;40710;51.120;13.136;2023-03-13T02:54:52;98530.53;;;10.79;61.45
54329;BME280;40710;51.120;13.136;2023-03-13T02:57:17;98528.19;;;10.62;62.50
54329;BME280;40710;51.120;13.136;2023-03-13T02:59:42;98508.13;;;11.25;59.81
54329;BME280;40710;51.120;13.136;2023-03-13T03:02:07;98527.41;;;11.00;61.52
54329;BME280;40710;51.120;13.136;2023-03-13T03:04:32;98508.03;;;11.01;60.38
54329;BME280;40710;51.120;13.136;2023-03-13T03:06:56;98512.47;;;10.87;61.64
54329;BME280;40710;51.120;13.136;2023-03-13T03:09:21;98499.84;;;11.31;60.39
54329;BME280;40710;51.120;13.136;2023-03-13T03:11:46;98490.22;;;11.43;59.61
54329;BME280;40710;51.120;13.136;2023-03-13T03:14:12;98505.47;;;10.60;61.91
54329;BME280;40710;51.120;13.136;2023-03-13T03:16:37;98483.41;;;11.40;59.86
54329;BME280;40710;51.120;13.136;2023-03-13T03:19:01;98490.59;;;11.12;60.88
54329;BME280;40710;51.120;13.136;2023-03-13T03:21:26;98470.66;;;11.34;59.99
54329;BME280;40710;51.120;13.136;2023-03-13T03:23:51;98475.88;;;11.10;60.58
54329;BME280;40710;51.120;13.136;2023-03-13T03:26:16;98480.50;;;11.06;60.87
54329;BME280;40710;51.120;13.136;2023-03-13T03:28:40;98473.25;;;11.10;61.55
54329;BME280;40710;51.120;13.136;2023-03-13T03:31:07;98475.31;;;11.18;60.79
54329;BME280;40710;51.120;13.136;2023-03-13T03:33:32;98472.28;;;10.72;61.83
54329;BME280;40710;51.120;13.136;2023-03-13T03:36:01;98469.16;;;10.93;61.46
54329;BME280;40710;51.120;13.136;2023-03-13T03:38:26;98464.09;;;10.90;62.07
54329;BME280;40710;51.120;13.136;2023-03-13T03:40:50;98459.28;;;10.84;61.45
54329;BME280;40710;51.120;13.136;2023-03-13T03:43:15;98454.66;;;10.87;61.86
54329;BME280;40710;51.120;13.136;2023-03-13T03:45:39;98441.47;;;11.50;60.08
54329;BME280;40710;51.120;13.136;2023-03-13T03:48:04;98446.66;;;10.89;61.72
54329;BME280;40710;51.120;13.136;2023-03-13T03:50:28;98440.75;;;10.98;61.53
54329;BME280;40710;51.120;13.136;2023-03-13T03:52:53;98438.66;;;10.77;61.62
54329;BME280;40710;51.120;13.136;2023-03-13T03:55:18;98443.66;;;11.19;61.26
54329;BME280;40710;51.120;13.136;2023-03-13T03:57:43;98424.13;;;11.47;60.42
54329;BME280;40710;51.120;13.136;2023-03-13T04:00:09;98424.28;;;11.33;60.69
54329;BME280;40710;51.120;13.136;2023-03-13T04:02:35;98419.75;;;11.35;60.13
54329;BME280;40710;51.120;13.136;2023-03-13T04:05:00;98441.31;;;10.25;63.41
54329;BME280;40710;51.120;13.136;2023-03-13T04:07:25;98404.59;;;12.11;59.63
54329;BME280;40710;51.120;13.136;2023-03-13T04:09:49;98402.28;;;12.42;58.04
54329;BME280;40710;51.120;13.136;2023-03-13T04:12:14;98402.31;;;11.21;60.61
54329;BME280;40710;51.120;13.136;2023-03-13T04:14:38;98396.31;;;11.80;60.11
54329;BME280;40710;51.120;13.136;2023-03-13T04:17:03;98377.84;;;12.51;58.06
54329;BME280;40710;51.120;13.136;2023-03-13T04:19:27;98382.75;;;12.33;58.38
54329;BME280;40710;51.120;13.136;2023-03-13T04:21:52;98370.31;;;12.58;57.66
54329;BME280;40710;51.120;13.136;2023-03-13T04:24:16;98359.28;;;12.86;55.80
54329;BME280;40710;51.120;13.136;2023-03-13T04:26:41;98376.97;;;11.44;60.63
54329;BME280;40710;51.120;13.136;2023-03-13T04:29:05;98394.28;;;10.60;62.50
54329;BME280;40710;51.120;13.136;2023-03-13T04:31:30;98381.31;;;11.08;62.84
54329;BME280;40710;51.120;13.136;2023-03-13T04:33:55;98373.44;;;11.32;61.36
54329;BME280;40710;51.120;13.136;2023-03-13T04:36:20;98364.16;;;11.64;60.94
54329;BME280;40710;51.120;13.136;2023-03-13T04:38:44;98354.59;;;11.39;60.76
54329;BME280;40710;51.120;13.136;2023-03-13T04:41:09;98354.44;;;11.88;59.55
54329;BME280;40710;51.120;13.136;2023-03-13T04:43:33;98353.19;;;11.70;59.60
54329;BME280;40710;51.120;13.136;2023-03-13T04:45:58;98341.38;;;11.76;59.85
54329;BME280;40710;51.120;13.136;2023-03-13T04:48:22;98331.22;;;12.06;59.04
54329;BME280;40710;51.120;13.136;2023-03-13T04:50:48;98327.88;;;12.04;58.64
54329;BME280;40710;51.120;13.136;2023-03-13T04:53:13;98321.03;;;12.13;58.91
54329;BME280;40710;51.120;13.136;2023-03-13T04:55:37;98316.66;;;11.89;58.72
54329;BME280;40710;51.120;13.136;2023-03-13T04:58:02;98319.59;;;11.49;59.64
54329;BME280;40710;51.120;13.136;2023-03-13T05:00:26;98307.88;;;12.24;58.35
54329;BME280;40710;51.120;13.136;2023-03-13T05:02:51;98303.06;;;11.96;59.09
54329;BME280;40710;51.120;13.136;2023-03-13T05:05:16;98290.31;;;12.36;58.19
54329;BME280;40710;51.120;13.136;2023-03-13T05:07:41;98298.91;;;11.80;59.22
54329;BME280;40710;51.120;13.136;2023-03-13T05:10:05;98277.38;;;12.33;58.40
54329;BME280;40710;51.120;13.136;2023-03-13T05:12:30;98264.81;;;12.25;58.47
54329;BME280;40710;51.120;13.136;2023-03-13T05:14:54;98271.47;;;12.07;58.97
54329;BME280;40710;51.120;13.136;2023-03-13T05:17:19;98258.81;;;12.35;58.15
54329;BME280;40710;51.120;13.136;2023-03-13T05:19:43;98249.91;;;12.13;58.68
54329;BME280;40710;51.120;13.136;2023-03-13T05:22:08;98245.84;;;12.43;57.66
54329;BME280;40710;51.120;13.136;2023-03-13T05:24:32;98234.13;;;12.13;58.38
54329;BME280;40710;51.120;13.136;2023-03-13T05:26:57;98248.03;;;11.80;59.72
54329;BME280;40710;51.120;13.136;2023-03-13T05:29:21;98238.09;;;12.19;58.95
54329;BME280;40710;51.120;13.136;2023-03-13T05:31:46;98227.38;;;12.77;57.34
54329;BME280;40710;51.120;13.136;2023-03-13T05:34:11;98217.34;;;12.48;58.03
54329;BME280;40710;51.120;13.136;2023-03-13T05:36:35;98227.97;;;11.79;59.33
54329;BME280;40710;51.120;13.136;2023-03-13T05:39:00;98229.44;;;12.39;58.34
54329;BME280;40710;51.120;13.136;2023-03-13T05:41:25;98235.63;;;11.82;60.14
54329;BME280;40710;51.120;13.136;2023-03-13T05:43:50;98235.31;;;11.98;59.80
54329;BME280;40710;51.120;13.136;2023-03-13T05:46:14;98228.63;;;12.05;59.34
54329;BME280;40710;51.120;13.136;2023-03-13T05:48:39;98225.00;;;12.51;58.36
54329;BME280;40710;51.120;13.136;2023-03-13T05:51:03;98223.31;;;12.61;57.94
54329;BME280;40710;51.120;13.136;2023-03-13T05:53:28;98209.78;;;12.66;57.75
54329;BME280;40710;51.120;13.136;2023-03-13T05:55:52;98202.19;;;12.84;57.44
54329;BME280;40710;51.120;13.136;2023-03-13T05:58:17;98192.22;;;12.33;57.31
54329;BME280;40710;51.120;13.136;2023-03-13T06:00:41;98191.16;;;13.11;56.47
54329;BME280;40710;51.120;13.136;2023-03-13T06:03:07;98191.75;;;12.27;58.53
54329;BME280;40710;51.120;13.136;2023-03-13T06:05:31;98184.06;;;12.47;57.99
54329;BME280;40710;51.120;13.136;2023-03-13T06:07:56;98169.97;;;12.80;57.86
54329;BME280;40710;51.120;13.136;2023-03-13T06:10:20;98159.59;;;12.67;57.82
54329;BME280;40710;51.120;13.136;2023-03-13T06:12:52;98164.94;;;12.22;58.41
54329;BME280;40710;51.120;13.136;2023-03-13T06:15:17;98166.47;;;12.25;59.01
54329;BME280;40710;51.120;13.136;2023-03-13T06:17:41;98160.63;;;12.10;59.18
54329;BME280;40710;51.120;13.136;2023-03-13T06:20:06;98145.94;;;12.51;58.39
54329;BME280;40710;51.120;13.136;2023-03-13T06:22:30;98146.25;;;12.14;58.87
54329;BME280;40710;51.120;13.136;2023-03-13T06:24:55;98139.81;;;12.07;59.91
54329;BME280;40710;51.120;13.136;2023-03-13T06:27:20;98127.84;;;12.58;58.16
54329;BME280;40710;51.120;13.136;2023-03-13T06:29:44;98134.97;;;12.23;59.84
54329;BME280;40710;51.120;13.136;2023-03-13T06:32:09;98149.09;;;12.34;59.13
54329;BME280;40710;51.120;13.136;2023-03-13T06:34:33;98147.91;;;11.70;60.81
54329;BME280;40710;51.120;13.136;2023-03-13T06:36:58;98130.19;;;13.04;57.34
54329;BME280;40710;51.120;13.136;2023-03-13T06:39:23;98122.00;;;13.29;56.68
54329;BME280;40710;51.120;13.136;2023-03-13T06:41:48;98125.88;;;12.39;59.96
54329;BME280;40710;51.120;13.136;2023-03-13T06:44:12;98140.22;;;12.46;60.77
54329;BME280;40710;51.120;13.136;2023-03-13T06:46:37;98154.41;;;12.00;62.24
54329;BME280;40710;51.120;13.136;2023-03-13T06:49:01;98140.13;;;12.25;62.51
54329;BME280;40710;51.120;13.136;2023-03-13T06:51:29;98134.66;;;12.17;63.50
54329;BME280;40710;51.120;13.136;2023-03-13T06:53:53;98130.81;;;12.21;63.71
54329;BME280;40710;51.120;13.136;2023-03-13T06:56:18;98117.31;;;12.03;64.15
54329;BME280;40710;51.120;13.136;2023-03-13T06:58:48;98116.31;;;12.38;64.23
54329;BME280;40710;51.120;13.136;2023-03-13T07:01:14;98118.13;;;12.26;65.25
54329;BME280;40710;51.120;13.136;2023-03-13T07:03:40;98136.56;;;11.92;65.99
54329;BME280;40710;51.120;13.136;2023-03-13T07:06:04;98136.31;;;11.72;66.45
54329;BME280;40710;51.120;13.136;2023-03-13T07:08:29;98119.34;;;11.99;66.41
54329;BME280;40710;51.120;13.136;2023-03-13T07:10:58;98113.13;;;12.00;66.91
54329;BME280;40710;51.120;13.136;2023-03-13T07:13:22;98108.91;;;11.86;67.36
54329;BME280;40710;51.120;13.136;2023-03-13T07:15:47;98113.94;;;11.78;68.08
54329;BME280;40710;51.120;13.136;2023-03-13T07:18:12;98105.09;;;11.68;68.45
54329;BME280;40710;51.120;13.136;2023-03-13T07:20:37;98096.34;;;11.56;68.90
54329;BME280;40710;51.120;13.136;2023-03-13T07:23:02;98111.91;;;11.70;68.57
54329;BME280;40710;51.120;13.136;2023-03-13T07:25:26;98105.56;;;11.62;69.52
54329;BME280;40710;51.120;13.136;2023-03-13T07:27:51;98083.81;;;12.05;67.99
54329;BME280;40710;51.120;13.136;2023-03-13T07:30:16;98082.31;;;12.23;67.32
54329;BME280;40710;51.120;13.136;2023-03-13T07:32:41;98058.13;;;12.18;68.31
54329;BME280;40710;51.120;13.136;2023-03-13T07:35:05;98056.13;;;12.54;67.25
54329;BME280;40710;51.120;13.136;2023-03-13T07:37:31;98055.59;;;12.28;67.22
54329;BME280;40710;51.120;13.136;2023-03-13T07:39:55;98066.91;;;12.19;67.65
54329;BME280;40710;51.120;13.136;2023-03-13T07:42:20;98082.19;;;12.36;67.26
54329;BME280;40710;51.120;13.136;2023-03-13T07:44:44;98066.19;;;12.49;66.94
54329;BME280;40710;51.120;13.136;2023-03-13T07:47:09;98071.66;;;12.25;67.09
54329;BME280;40710;51.120;13.136;2023-03-13T07:49:33;98069.72;;;13.13;65.90
54329;BME280;40710;51.120;13.136;2023-03-13T07:52:04;98070.09;;;13.29;64.91
54329;BME280;40710;51.120;13.136;2023-03-13T07:54:28;98089.28;;;12.57;66.28
54329;BME280;40710;51.120;13.136;2023-03-13T07:56:53;98100.28;;;12.18;68.62
54329;BME280;40710;51.120;13.136;2023-03-13T07:59:17;98105.22;;;12.55;67.77
54329;BME280;40710;51.120;13.136;2023-03-13T08:01:42;98103.88;;;12.06;68.14
54329;BME280;40710;51.120;13.136;2023-03-13T08:04:12;98087.56;;;13.41;65.08
54329;BME280;40710;51.120;13.136;2023-03-13T08:06:37;98083.00;;;12.69;66.34
54329;BME280;40710;51.120;13.136;2023-03-13T08:09:03;98094.53;;;12.24;67.68
54329;BME280;40710;51.120;13.136;2023-03-13T08:11:28;98098.44;;;12.74;67.07
54329;BME280;40710;51.120;13.136;2023-03-13T08:13:53;98098.44;;;12.74;67.64
54329;BME280;40710;51.120;13.136;2023-03-13T08:16:21;98095.81;;;12.30;67.48
54329;BME280;40710;51.120;13.136;2023-03-13T08:18:48;98094.13;;;12.73;65.85
54329;BME280;40710;51.120;13.136;2023-03-13T08:21:16;98112.81;;;12.37;67.77
54329;BME280;40710;51.120;13.136;2023-03-13T08:23:41;98097.13;;;12.36;67.42
54329;BME280;40710;51.120;13.136;2023-03-13T08:26:12;98075.81;;;12.39;66.05
54329;BME280;40710;51.120;13.136;2023-03-13T08:28:38;98082.91;;;13.34;63.68
54329;BME280;40710;51.120;13.136;2023-03-13T08:31:12;98078.34;;;13.15;64.59
54329;BME280;40710;51.120;13.136;2023-03-13T08:33:38;98082.31;;;12.88;65.90
54329;BME280;40710;51.120;13.136;2023-03-13T08:36:10;98112.31;;;12.76;65.53
54329;BME280;40710;51.120;13.136;2023-03-13T08:38:35;98086.72;;;12.66;65.80
54329;BME280;40710;51.120;13.136;2023-03-13T08:40:59;98079.16;;;12.73;66.03
54329;BME280;40710;51.120;13.136;2023-03-13T08:43:24;98075.75;;;13.03;64.62
54329;BME280;40710;51.120;13.136;2023-03-13T08:45:54;98046.38;;;14.10;62.03
54329;BME280;40710;51.120;13.136;2023-03-13T08:48:18;98051.53;;;13.10;64.63
54329;BME280;40710;51.120;13.136;2023-03-13T08:50:43;98072.47;;;12.90;64.84
54329;BME280;40710;51.120;13.136;2023-03-13T08:53:08;98050.44;;;14.24;62.68
54329;BME280;40710;51.120;13.136;2023-03-13T08:55:32;98061.03;;;13.43;64.92
54329;BME280;40710;51.120;13.136;2023-03-13T08:57:57;98030.44;;;14.80;59.60
54329;BME280;40710;51.120;13.136;2023-03-13T09:00:21;98039.28;;;14.01;62.36
54329;BME280;40710;51.120;13.136;2023-03-13T09:02:46;98028.34;;;14.84;60.67
54329;BME280;40710;51.120;13.136;2023-03-13T09:05:11;98043.16;;;13.56;62.92
54329;BME280;40710;51.120;13.136;2023-03-13T09:07:35;98065.75;;;12.97;65.22
54329;BME280;40710;51.120;13.136;2023-03-13T09:10:00;98064.06;;;12.96;65.86
54329;BME280;40710;51.120;13.136;2023-03-13T09:12:24;98094.41;;;12.70;67.15
54329;BME280;40710;51.120;13.136;2023-03-13T09:14:50;98096.75;;;12.40;67.81
54329;BME280;40710;51.120;13.136;2023-03-13T09:17:15;98095.13;;;12.93;67.64
54329;BME280;40710;51.120;13.136;2023-03-13T09:19:39;98094.47;;;13.21;67.09
54329;BME280;40710;51.120;13.136;2023-03-13T09:22:04;98089.66;;;13.05;67.19
54329;BME280;40710;51.120;13.136;2023-03-13T09:24:28;98081.50;;;13.09;66.26
54329;BME280;40710;51.120;13.136;2023-03-13T09:26:53;98076.22;;;12.88;67.36
54329;BME280;40710;51.120;13.136;2023-03-13T09:29:18;98063.38;;;13.25;65.66
54329;BME280;40710;51.120;13.136;2023-03-13T09:31:42;98072.81;;;13.39;64.73
54329;BME280;40710;51.120;13.136;2023-03-13T09:34:07;98055.69;;;14.14;63.31
54329;BME280;40710;51.120;13.136;2023-03-13T09:36:31;98058.63;;;13.71;64.41
54329;BME280;40710;51.120;13.136;2023-03-13T09:38:58;98052.50;;;14.11;63.50
54329;BME280;40710;51.120;13.136;2023-03-13T09:41:38;98060.13;;;13.12;66.01
54329;BME280;40710;51.120;13.136;2023-03-13T09:44:24;98053.75;;;13.35;66.00
54329;BME280;40710;51.120;13.136;2023-03-13T09:49:34;98072.91;;;13.16;65.97
54329;BME280;40710;51.120;13.136;2023-03-13T09:52:17;98054.97;;;13.62;65.32
54329;BME280;40710;51.120;13.136;2023-03-13T09:57:32;98053.22;;;14.23;64.35
54329;BME280;40710;51.120;13.136;2023-03-13T10:00:10;98045.28;;;13.72;65.36
54329;BME280;40710;51.120;13.136;2023-03-13T10:02:38;98051.00;;;13.37;65.26
54329;BME280;40710;51.120;13.136;2023-03-13T10:05:20;98031.78;;;15.13;62.30
54329;BME280;40710;51.120;13.136;2023-03-13T10:07:45;98034.78;;;13.92;63.89
54329;BME280;40710;51.120;13.136;2023-03-13T10:10:33;98025.78;;;13.94;64.44
54329;BME280;40710;51.120;13.136;2023-03-13T10:13:17;98017.91;;;14.33;63.42
54329;BME280;40710;51.120;13.136;2023-03-13T10:15:52;98041.06;;;13.50;65.79
54329;BME280;40710;51.120;13.136;2023-03-13T10:18:21;98051.16;;;14.36;63.69
54329;BME280;40710;51.120;13.136;2023-03-13T10:20:49;98032.78;;;14.25;63.95
54329;BME280;40710;51.120;13.136;2023-03-13T10:25:53;98050.69;;;13.61;65.61
54329;BME280;40710;51.120;13.136;2023-03-13T10:28:17;98063.91;;;14.11;64.42
54329;BME280;40710;51.120;13.136;2023-03-13T10:30:49;98052.06;;;13.96;64.73
54329;BME280;40710;51.120;13.136;2023-03-13T10:33:22;98052.88;;;13.87;65.98
54329;BME280;40710;51.120;13.136;2023-03-13T10:36:00;98046.47;;;14.59;63.82
54329;BME280;40710;51.120;13.136;2023-03-13T10:38:25;98042.31;;;13.87;64.78
54329;BME280;40710;51.120;13.136;2023-03-13T10:41:01;98044.78;;;13.88;65.37
54329;BME280;40710;51.120;13.136;2023-03-13T10:43:30;98058.13;;;14.47;64.37
54329;BME280;40710;51.120;13.136;2023-03-13T10:45:55;98025.25;;;14.98;63.33
54329;BME280;40710;51.120;13.136;2023-03-13T10:48:25;98018.88;;;14.91;61.61
54329;BME280;40710;51.120;13.136;2023-03-13T10:50:54;97996.53;;;17.65;57.20
54329;BME280;40710;51.120;13.136;2023-03-13T10:56:10;98011.53;;;15.60;58.53
54329;BME280;40710;51.120;13.136;2023-03-13T10:58:47;98042.22;;;14.37;64.22
54329;BME280;40710;51.120;13.136;2023-03-13T11:01:39;98034.56;;;14.34;63.82
54329;BME280;40710;51.120;13.136;2023-03-13T11:04:40;98043.50;;;15.01;63.24
54329;BME280;40710;51.120;13.136;2023-03-13T11:07:19;98034.56;;;14.34;64.76
54329;BME280;40710;51.120;13.136;2023-03-13T11:09:57;98044.31;;;14.33;64.32
54329;BME280;40710;51.120;13.136;2023-03-13T11:12:21;98020.69;;;14.81;63.75
54329;BME280;40710;51.120;13.136;2023-03-13T11:14:46;98011.38;;;15.34;61.56
54329;BME280;40710;51.120;13.136;2023-03-13T11:17:30;97997.56;;;15.67;61.21
54329;BME280;40710;51.120;13.136;2023-03-13T11:20:04;98000.31;;;16.03;59.48
54329;BME280;40710;51.120;13.136;2023-03-13T11:28:16;97995.53;;;15.89;60.16
54329;BME280;40710;51.120;13.136;2023-03-13T11:35:49;98011.78;;;14.52;64.39
54329;BME280;40710;51.120;13.136;2023-03-13T11:38:39;97990.81;;;15.18;62.06
54329;BME280;40710;51.120;13.136;2023-03-13T11:50:19;97979.41;;;15.17;62.13
54329;BME280;40710;51.120;13.136;2023-03-13T11:56:00;97970.50;;;15.18;62.76
54329;BME280;40710;51.120;13.136;2023-03-13T12:01:16;97915.44;;;16.31;58.68
54329;BME280;40710;51.120;13.136;2023-03-13T12:04:01;97911.22;;;16.91;57.65
54329;BME280;40710;51.120;13.136;2023-03-13T12:06:34;97886.53;;;19.22;51.93
54329;BME280;40710;51.120;13.136;2023-03-13T12:09:11;97949.81;;;16.67;56.54
54329;BME280;40710;51.120;13.136;2023-03-13T12:12:10;97897.94;;;17.76;55.15
54329;BME280;40710;51.120;13.136;2023-03-13T12:14:45;97889.34;;;17.99;54.42
54329;BME280;40710;51.120;13.136;2023-03-13T12:17:31;97880.78;;;17.54;55.41
54329;BME280;40710;51.120;13.136;2023-03-13T12:20:13;97854.91;;;19.50;51.06
54329;BME280;40710;51.120;13.136;2023-03-13T12:23:16;97871.91;;;18.12;54.10
54329;BME280;40710;51.120;13.136;2023-03-13T12:26:19;97855.53;;;18.81;52.36
54329;BME280;40710;51.120;13.136;2023-03-13T12:31:22;97850.56;;;18.86;52.83
54329;BME280;40710;51.120;13.136;2023-03-13T12:34:08;97850.31;;;17.32;54.72
54329;BME280;40710;51.120;13.136;2023-03-13T12:39:29;97860.63;;;17.94;54.56
54329;BME280;40710;51.120;13.136;2023-03-13T12:44:42;97812.75;;;20.38;48.35
54329;BME280;40710;51.120;13.136;2023-03-13T12:47:14;97817.22;;;20.90;46.81
54329;BME280;40710;51.120;13.136;2023-03-13T12:49:58;97823.72;;;20.05;49.42
54329;BME280;40710;51.120;13.136;2023-03-13T12:55:32;97839.38;;;19.31;49.56
54329;BME280;40710;51.120;13.136;2023-03-13T13:00:51;97833.59;;;19.50;50.16
54329;BME280;40710;51.120;13.136;2023-03-13T13:08:41;97844.09;;;17.74;54.38
54329;BME280;40710;51.120;13.136;2023-03-13T13:16:43;97801.25;;;17.69;54.30
54329;BME280;40710;51.120;13.136;2023-03-13T13:32:42;97829.94;;;17.41;55.68
54329;BME280;40710;51.120;13.136;2023-03-13T13:35:29;97829.59;;;17.35;55.54
54329;BME280;40710;51.120;13.136;2023-03-13T13:41:21;97852.81;;;17.33;55.81
54329;BME280;40710;51.120;13.136;2023-03-13T13:44:25;97863.16;;;17.02;56.53
54329;BME280;40710;51.120;13.136;2023-03-13T13:46:50;97849.13;;;17.18;56.30
54329;BME280;40710;51.120;13.136;2023-03-13T13:49:19;97848.47;;;18.00;54.69
54329;BME280;40710;51.120;13.136;2023-03-13T13:54:30;97834.19;;;18.09;53.71
54329;BME280;40710;51.120;13.136;2023-03-13T13:56:59;97813.53;;;20.62;50.98
54329;BME280;40710;51.120;13.136;2023-03-13T13:59:35;97790.03;;;21.53;46.50
54329;BME280;40710;51.120;13.136;2023-03-13T14:04:36;97861.59;;;17.26;54.46
54329;BME280;40710;51.120;13.136;2023-03-13T14:07:04;97831.16;;;17.04;56.22
54329;BME280;40710;51.120;13.136;2023-03-13T14:09:48;97818.38;;;17.66;53.84
54329;BME280;40710;51.120;13.136;2023-03-13T14:12:31;97817.94;;;19.78;52.23
54329;BME280;40710;51.120;13.136;2023-03-13T14:15:14;97765.31;;;24.67;40.94
54329;BME280;40710;51.120;13.136;2023-03-13T14:17:53;97781.63;;;24.72;39.69
54329;BME280;40710;51.120;13.136;2023-03-13T14:20:33;97826.81;;;18.60;50.63
54329;BME280;40710;51.120;13.136;2023-03-13T14:23:07;97829.72;;;17.09;56.16
54329;BME280;40710;51.120;13.136;2023-03-13T14:25:47;97833.34;;;17.08;56.44